Αναφορές Αεροδρομίων

 

KSJC - San Jose, California, USA
Distance from station: ΒΑ 14km
Ενημερώθηκε: 04/03/2024 15:53
Σχεδόν νεφελώδης
Σχεδόν νεφελώδης
 Ανεμος από Ν
Ανεμος: Ν 9 km/h
Θερμοκρασία: 8°C
Wind Chill: 6°C
Σημείο Δρόσου: 6°C
Υγρασία: 87%
Βαρόμετρο: 1020.3 hPa
Clouds: Σχεδόν νεφελώδης
Visibility: 16 km
Cloud details: Few Clouds 1189 m
Few Clouds 1524 m
Σχεδόν νεφελώδης 1829 m
2024/03/04 13:53 KSJC 041353Z 17005KT 10SM FEW039 FEW050 BKN060 08/06 A3013 RMK AO2 SLP202 T00830056
KNUQ - Moffett Nas/Mtn, California, USA
Distance from station: Β 14km
Ενημερώθηκε: 04/03/2024 16:35
Σχεδόν νεφελώδης
Σχεδόν νεφελώδης
 Ανεμος από ΝΑ
Ανεμος: ΝΑ 6 km/h
Θερμοκρασία: 8°C
Σημείο Δρόσου: 7°C
Υγρασία: 93%
Βαρόμετρο: 1020.7 hPa
Clouds: Σχεδόν νεφελώδης
Visibility: 16 km
Cloud details: Few Clouds 853 m
Μερικώς νεφελώδης 1158 m
Σχεδόν νεφελώδης 1402 m
2024/03/04 14:35 KNUQ 041435Z AUTO 13003KT 10SM FEW028 SCT038 BKN046 08/07 A3014 RMK AO2
 
KPAO - Palo Alto, California, USA
Distance from station: ΒΒΔ 23km
Ενημερώθηκε: 04/03/2024 06:47
NOT Current
Μερικώς νεφελώδης
Μερικώς νεφελώδης
 Ανεμος από ΝΝΑ
Ανεμος: ΝΝΑ 6 km/h
Θερμοκρασία: 8°C
Σημείο Δρόσου: 6°C
Υγρασία: 87%
Βαρόμετρο: 1018.6 hPa
Clouds: Μερικώς νεφελώδης
Visibility: 16 km
Cloud details: Μερικώς νεφελώδης 914 m
2024/03/04 04:47 KPAO 040447Z 16003KT 10SM SCT030 08/06 A3008 RMK LAST
KRHV - San Jose/Reid, California, USA
Distance from station: ΑΒΑ 19km
Ενημερώθηκε: 04/03/2024 07:55
NOT Current
Μερικώς νεφελώδης
Μερικώς νεφελώδης
 Ανεμος από calm
Ανεμος: Απνοια
Θερμοκρασία: 8°C
Σημείο Δρόσου: 7°C
Υγρασία: 93%
Βαρόμετρο: 1019.3 hPa
Clouds: Μερικώς νεφελώδης
Visibility: 16 km
Cloud details: Μερικώς νεφελώδης 914 m
2024/03/04 05:55 KRHV 040555Z 00000KT 10SM SCT030 08/07 A3010 RMK LAST
 
KOAK - Oakland, California, USA
Distance from station: ΒΒΔ 50km
Ενημερώθηκε: 04/03/2024 15:53
Ασθενής βροχή, Συννεφιά
Ασθενής βροχή, Συννεφιά
 Ανεμος από ΑΝΑ
Ανεμος: ΑΝΑ 9 km/h
Θερμοκρασία: 8°C
Wind Chill: 6°C
Σημείο Δρόσου: 8°C
Υγρασία: 100%
Βαρόμετρο: 1020.3 hPa
Περίληψη: Ασθενής βροχή
Clouds: Συννεφιά
Visibility: 16 km
Cloud details: Few Clouds 274 m
Μερικώς νεφελώδης 1067 m
Συννεφιά 1524 m
2024/03/04 13:53 KOAK 041353Z 11005KT 10SM -RA FEW009 SCT035 OVC050 08/08 A3013 RMK AO2 RAB44 SLP203 P0000 T00780078
KSQL - San Carlos Airpo, California, USA
Distance from station: ΒΔ 34km
Ενημερώθηκε: 04/03/2024 16:35
Σχεδόν νεφελώδης
Σχεδόν νεφελώδης
 Ανεμος από Ν
Ανεμος: Ν 7 km/h
Θερμοκρασία: 8°C
Wind Chill: 7°C
Σημείο Δρόσου: 7°C
Υγρασία: 93%
Βαρόμετρο: 1020.7 hPa
Clouds: Σχεδόν νεφελώδης
Visibility: 16 km
Cloud details: Σχεδόν νεφελώδης 1463 m
2024/03/04 14:35 KSQL 041435Z AUTO 19004KT 10SM BKN048 08/07 A3014 RMK AO2
 
KSFO - San Francisco, California, USA
Distance from station: ΒΔ 49km
Ενημερώθηκε: 04/03/2024 15:56
Ασθενής βροχή, Σχεδόν νεφελώδης
Ασθενής βροχή, Σχεδόν νεφελώδης
 Ανεμος από ΝΝΑ
Ανεμος: ΝΝΑ 6 km/h
Θερμοκρασία: 8°C
Σημείο Δρόσου: 6°C
Υγρασία: 87%
Βαρόμετρο: 1020 hPa
Περίληψη: Ασθενής βροχή
Clouds: Σχεδόν νεφελώδης
Visibility: 16 km
Cloud details: Few Clouds 305 m
Μερικώς νεφελώδης 792 m
Σχεδόν νεφελώδης 1280 m
2024/03/04 13:56 KSFO 041356Z 15003KT 10SM -RA FEW010 SCT026 BKN042 08/06 A3012 RMK AO2 RAB39 SLP199 P0001 T00830061 $
KE16 - San Martin, California, USA
Distance from station: ΑΝΑ 43km
Ενημερώθηκε: 04/03/2024 16:35
Fog, Συννεφιά
Fog, Συννεφιά
 Ανεμος από calm
Ανεμος: Απνοια
Θερμοκρασία: 6°C
Σημείο Δρόσου: 6°C
Υγρασία: 100%
Βαρόμετρο: 1021.3 hPa
Περίληψη: Fog
Clouds: Συννεφιά
Visibility: 0.4 km
Cloud details: Συννεφιά 61 m
2024/03/04 14:35 KE16 041435Z AUTO 00000KT M1/4SM FG OVC002 06/06 A3016 RMK AO2 PWINO PNO
 
KWVI - Watsonville, California, USA
Distance from station: ΝΝΑ 44km
Ενημερώθηκε: 04/03/2024 15:53
Συννεφιά
Συννεφιά
 Ανεμος από calm
Ανεμος: Απνοια
Θερμοκρασία: 6°C
Σημείο Δρόσου: 6°C
Υγρασία: 100%
Βαρόμετρο: 1020.7 hPa
Clouds: Συννεφιά
Visibility: 16 km
Cloud details: Συννεφιά 1524 m
2024/03/04 13:53 KWVI 041353Z AUTO 00000KT 10SM OVC050 06/06 A3014 RMK AO2 RAE1258 SLP206 P0000 T00560056
KHAF - Half Moon Bay, California, USA
Distance from station: ΔΒΔ 50km
Ενημερώθηκε: 04/03/2024 16:35
Συννεφιά
Συννεφιά
 Ανεμος από calm
Ανεμος: Απνοια
Θερμοκρασία: 7°C
Σημείο Δρόσου: 7°C
Υγρασία: 100%
Βαρόμετρο: 1020.3 hPa
Clouds: Συννεφιά
Visibility: 13 km
Cloud details: Συννεφιά 1676 m
2024/03/04 14:35 KHAF 041435Z AUTO 00000KT 8SM OVC055 07/07 A3013 RMK AO2
 
KHWD - Hayward, California, USA
Distance from station: Β 44km
Ενημερώθηκε: 04/03/2024 15:54
Σχεδόν νεφελώδης
Σχεδόν νεφελώδης
 Ανεμος από Α
Ανεμος: Α 6 km/h
Θερμοκρασία: 9°C
Σημείο Δρόσου: 7°C
Υγρασία: 87%
Βαρόμετρο: 1020 hPa
Clouds: Σχεδόν νεφελώδης
Visibility: 16 km
Cloud details: Μερικώς νεφελώδης 1006 m
Σχεδόν νεφελώδης 1829 m
2024/03/04 13:54 KHWD 041354Z AUTO 09003KT 10SM SCT033 BKN060 09/07 A3012 RMK AO2 SLP210 T00890067
KLVK - Livermore, California, USA
Distance from station: ΒΒΑ 51km
Ενημερώθηκε: 04/03/2024 15:53
Μερικώς νεφελώδης
Μερικώς νεφελώδης
 Ανεμος από calm
Ανεμος: Απνοια
Θερμοκρασία: 6°C
Σημείο Δρόσου: 5°C
Υγρασία: 93%
Βαρόμετρο: 1020 hPa
Clouds: Μερικώς νεφελώδης
Visibility: 16 km
Cloud details: Μερικώς νεφελώδης 1280 m
2024/03/04 13:53 KLVK 041353Z AUTO 00000KT 10SM SCT042 06/05 A3012 RMK AO2 SLP199 T00610050